sensor_id;sensor_type;location;lat;lon;timestamp;temperature;humidity
20858;DHT22;10589;53.636;10.012;2023-02-12T04:47:14;6.70;99.90
20858;DHT22;10589;53.636;10.012;2023-02-12T04:49:40;6.70;99.90
20858;DHT22;10589;53.636;10.012;2023-02-12T04:52:07;6.70;99.90
20858;DHT22;10589;53.636;10.012;2023-02-12T04:54:33;6.70;99.90
20858;DHT22;10589;53.636;10.012;2023-02-12T04:56:59;6.80;99.90
20858;DHT22;10589;53.636;10.012;2023-02-12T04:59:24;6.70;99.90
20858;DHT22;10589;53.636;10.012;2023-02-12T05:01:50;6.80;99.90
20858;DHT22;10589;53.636;10.012;2023-02-12T05:04:17;6.90;99.90
20858;DHT22;10589;53.636;10.012;2023-02-12T05:06:43;6.90;99.90
20858;DHT22;10589;53.636;10.012;2023-02-12T05:09:13;6.80;99.90
20858;DHT22;10589;53.636;10.012;2023-02-12T05:11:39;6.80;99.90
20858;DHT22;10589;53.636;10.012;2023-02-12T05:14:04;6.80;99.90
20858;DHT22;10589;53.636;10.012;2023-02-12T05:16:30;6.90;99.90
20858;DHT22;10589;53.636;10.012;2023-02-12T05:18:56;6.90;99.90
20858;DHT22;10589;53.636;10.012;2023-02-12T05:21:22;6.90;99.90
20858;DHT22;10589;53.636;10.012;2023-02-12T05:23:47;6.80;99.90
20858;DHT22;10589;53.636;10.012;2023-02-12T05:26:16;6.90;99.90
20858;DHT22;10589;53.636;10.012;2023-02-12T05:28:42;6.80;99.90
20858;DHT22;10589;53.636;10.012;2023-02-12T05:31:13;6.90;99.90
20858;DHT22;10589;53.636;10.012;2023-02-12T05:33:44;7.00;99.90
20858;DHT22;10589;53.636;10.012;2023-02-12T05:36:13;6.90;99.90
20858;DHT22;10589;53.636;10.012;2023-02-12T05:38:39;6.90;99.90
20858;DHT22;10589;53.636;10.012;2023-02-12T05:41:13;6.90;99.90
20858;DHT22;10589;53.636;10.012;2023-02-12T05:43:40;6.90;99.90
20858;DHT22;10589;53.636;10.012;2023-02-12T05:46:06;6.90;99.90
20858;DHT22;10589;53.636;10.012;2023-02-12T05:48:32;6.80;99.90
20858;DHT22;10589;53.636;10.012;2023-02-12T05:51:19;6.90;99.90
20858;DHT22;10589;53.636;10.012;2023-02-12T05:53:46;6.90;99.90
20858;DHT22;10589;53.636;10.012;2023-02-12T05:56:16;7.00;99.90
20858;DHT22;10589;53.636;10.012;2023-02-12T05:58:45;6.90;99.90
20858;DHT22;10589;53.636;10.012;2023-02-12T06:01:15;6.90;99.90
20858;DHT22;10589;53.636;10.012;2023-02-12T06:03:41;6.90;99.90
20858;DHT22;10589;53.636;10.012;2023-02-12T06:06:07;6.90;99.90
20858;DHT22;10589;53.636;10.012;2023-02-12T06:08:33;6.90;99.90
20858;DHT22;10589;53.636;10.012;2023-02-12T06:11:01;7.00;99.90
20858;DHT22;10589;53.636;10.012;2023-02-12T06:13:28;7.00;99.90
20858;DHT22;10589;53.636;10.012;2023-02-12T06:15:54;7.00;99.90
20858;DHT22;10589;53.636;10.012;2023-02-12T06:18:19;7.00;99.90
20858;DHT22;10589;53.636;10.012;2023-02-12T06:20:45;6.90;99.90
20858;DHT22;10589;53.636;10.012;2023-02-12T06:23:10;7.00;99.90
20858;DHT22;10589;53.636;10.012;2023-02-12T06:25:36;7.00;99.90
20858;DHT22;10589;53.636;10.012;2023-02-12T06:28:02;7.00;99.90
20858;DHT22;10589;53.636;10.012;2023-02-12T06:30:27;7.00;99.90
20858;DHT22;10589;53.636;10.012;2023-02-12T06:32:53;7.10;99.90
20858;DHT22;10589;53.636;10.012;2023-02-12T06:35:19;7.00;99.90
20858;DHT22;10589;53.636;10.012;2023-02-12T06:37:44;7.00;99.90
20858;DHT22;10589;53.636;10.012;2023-02-12T06:40:10;6.90;99.90
20858;DHT22;10589;53.636;10.012;2023-02-12T06:42:35;7.00;99.90
20858;DHT22;10589;53.636;10.012;2023-02-12T06:45:01;7.00;99.90
20858;DHT22;10589;53.636;10.012;2023-02-12T06:47:28;7.00;99.90
20858;DHT22;10589;53.636;10.012;2023-02-12T06:49:53;6.90;99.90
20858;DHT22;10589;53.636;10.012;2023-02-12T06:52:19;7.00;99.90
20858;DHT22;10589;53.636;10.012;2023-02-12T06:54:45;7.10;99.90
20858;DHT22;10589;53.636;10.012;2023-02-12T06:57:11;7.10;99.90
20858;DHT22;10589;53.636;10.012;2023-02-12T06:59:37;7.00;99.90
20858;DHT22;10589;53.636;10.012;2023-02-12T07:02:02;7.00;99.90
20858;DHT22;10589;53.636;10.012;2023-02-12T07:04:28;7.10;99.90
20858;DHT22;10589;53.636;10.012;2023-02-12T07:06:53;7.10;99.90
20858;DHT22;10589;53.636;10.012;2023-02-12T07:09:19;7.20;99.90
20858;DHT22;10589;53.636;10.012;2023-02-12T07:11:44;7.20;99.90
20858;DHT22;10589;53.636;10.012;2023-02-12T07:14:15;7.20;99.90
20858;DHT22;10589;53.636;10.012;2023-02-12T07:16:41;7.30;99.90
20858;DHT22;10589;53.636;10.012;2023-02-12T07:19:07;7.20;99.90
20858;DHT22;10589;53.636;10.012;2023-02-12T07:21:33;7.20;99.90
20858;DHT22;10589;53.636;10.012;2023-02-12T07:23:59;7.20;99.90
20858;DHT22;10589;53.636;10.012;2023-02-12T07:26:24;7.20;99.90
20858;DHT22;10589;53.636;10.012;2023-02-12T07:28:50;7.20;99.90
20858;DHT22;10589;53.636;10.012;2023-02-12T07:31:22;7.20;99.90
20858;DHT22;10589;53.636;10.012;2023-02-12T07:33:48;7.20;99.90
20858;DHT22;10589;53.636;10.012;2023-02-12T07:36:19;7.20;99.90
20858;DHT22;10589;53.636;10.012;2023-02-12T07:38:45;7.30;99.90
20858;DHT22;10589;53.636;10.012;2023-02-12T07:41:23;7.30;99.90
20858;DHT22;10589;53.636;10.012;2023-02-12T07:43:56;7.30;99.90
20858;DHT22;10589;53.636;10.012;2023-02-12T07:46:25;7.40;99.90
20858;DHT22;10589;53.636;10.012;2023-02-12T07:48:54;7.30;99.90
20858;DHT22;10589;53.636;10.012;2023-02-12T07:51:20;7.50;99.90
20858;DHT22;10589;53.636;10.012;2023-02-12T07:53:46;7.40;99.90
20858;DHT22;10589;53.636;10.012;2023-02-12T07:56:21;7.50;99.90
20858;DHT22;10589;53.636;10.012;2023-02-12T07:58:51;7.40;99.90
20858;DHT22;10589;53.636;10.012;2023-02-12T08:01:37;7.50;99.90
20858;DHT22;10589;53.636;10.012;2023-02-12T08:04:11;7.50;99.90
20858;DHT22;10589;53.636;10.012;2023-02-12T08:06:40;7.60;99.90
20858;DHT22;10589;53.636;10.012;2023-02-12T08:09:08;7.60;99.90
20858;DHT22;10589;53.636;10.012;2023-02-12T08:11:36;7.60;99.90
20858;DHT22;10589;53.636;10.012;2023-02-12T08:14:02;7.60;99.90
20858;DHT22;10589;53.636;10.012;2023-02-12T08:16:28;7.70;99.90
20858;DHT22;10589;53.636;10.012;2023-02-12T08:18:55;7.70;99.90
20858;DHT22;10589;53.636;10.012;2023-02-12T08:21:22;7.80;99.90
20858;DHT22;10589;53.636;10.012;2023-02-12T08:23:49;7.80;99.90
20858;DHT22;10589;53.636;10.012;2023-02-12T08:28:46;7.60;99.90
20858;DHT22;10589;53.636;10.012;2023-02-12T08:31:41;7.70;99.90
20858;DHT22;10589;53.636;10.012;2023-02-12T08:34:22;7.70;99.90
20858;DHT22;10589;53.636;10.012;2023-02-12T08:36:49;7.70;99.90
20858;DHT22;10589;53.636;10.012;2023-02-12T08:39:16;7.70;99.90
20858;DHT22;10589;53.636;10.012;2023-02-12T08:41:43;7.70;99.90
20858;DHT22;10589;53.636;10.012;2023-02-12T08:44:11;7.70;99.90
20858;DHT22;10589;53.636;10.012;2023-02-12T08:46:39;7.80;99.90
20858;DHT22;10589;53.636;10.012;2023-02-12T08:49:08;7.80;99.90
20858;DHT22;10589;53.636;10.012;2023-02-12T08:51:38;7.80;99.90
20858;DHT22;10589;53.636;10.012;2023-02-12T08:54:06;7.90;99.90
20858;DHT22;10589;53.636;10.012;2023-02-12T08:56:33;7.90;99.90
20858;DHT22;10589;53.636;10.012;2023-02-12T08:59:00;7.90;99.90
20858;DHT22;10589;53.636;10.012;2023-02-12T09:01:29;7.90;99.90
20858;DHT22;10589;53.636;10.012;2023-02-12T09:03:55;8.00;99.90
20858;DHT22;10589;53.636;10.012;2023-02-12T09:06:22;8.10;99.90
20858;DHT22;10589;53.636;10.012;2023-02-12T09:08:49;8.10;99.90
20858;DHT22;10589;53.636;10.012;2023-02-12T09:11:23;8.00;99.90
20858;DHT22;10589;53.636;10.012;2023-02-12T09:13:58;8.00;99.90
20858;DHT22;10589;53.636;10.012;2023-02-12T09:16:25;8.10;99.90
20858;DHT22;10589;53.636;10.012;2023-02-12T09:18:51;8.10;99.90
20858;DHT22;10589;53.636;10.012;2023-02-12T09:21:17;8.20;99.90
20858;DHT22;10589;53.636;10.012;2023-02-12T09:23:44;8.20;99.90
20858;DHT22;10589;53.636;10.012;2023-02-12T09:26:13;8.20;99.90
20858;DHT22;10589;53.636;10.012;2023-02-12T09:28:40;8.20;99.90
20858;DHT22;10589;53.636;10.012;2023-02-12T09:31:07;8.20;99.90
20858;DHT22;10589;53.636;10.012;2023-02-12T09:33:33;8.20;99.90
20858;DHT22;10589;53.636;10.012;2023-02-12T09:36:03;8.20;99.90
20858;DHT22;10589;53.636;10.012;2023-02-12T09:38:29;8.30;99.90
20858;DHT22;10589;53.636;10.012;2023-02-12T09:43:39;8.30;99.90
20858;DHT22;10589;53.636;10.012;2023-02-12T09:46:17;8.30;99.90
20858;DHT22;10589;53.636;10.012;2023-02-12T09:49:09;8.40;99.90
20858;DHT22;10589;53.636;10.012;2023-02-12T09:51:37;8.50;99.90
20858;DHT22;10589;53.636;10.012;2023-02-12T09:54:13;8.50;99.90
20858;DHT22;10589;53.636;10.012;2023-02-12T09:56:42;8.60;99.90
20858;DHT22;10589;53.636;10.012;2023-02-12T09:59:10;8.50;99.90
20858;DHT22;10589;53.636;10.012;2023-02-12T10:01:39;8.50;99.90
20858;DHT22;10589;53.636;10.012;2023-02-12T10:04:04;8.50;99.90
20858;DHT22;10589;53.636;10.012;2023-02-12T10:06:42;8.50;99.90
20858;DHT22;10589;53.636;10.012;2023-02-12T10:09:51;8.50;99.90
20858;DHT22;10589;53.636;10.012;2023-02-12T10:17:41;8.40;99.90
20858;DHT22;10589;53.636;10.012;2023-02-12T10:28:14;8.40;99.90
20858;DHT22;10589;53.636;10.012;2023-02-12T10:30:52;8.30;99.90
20858;DHT22;10589;53.636;10.012;2023-02-12T10:35:51;8.40;99.90
20858;DHT22;10589;53.636;10.012;2023-02-12T10:38:28;8.40;99.90
20858;DHT22;10589;53.636;10.012;2023-02-12T10:40:54;8.30;99.90
20858;DHT22;10589;53.636;10.012;2023-02-12T10:43:23;8.40;99.90
20858;DHT22;10589;53.636;10.012;2023-02-12T10:45:49;8.40;99.90
20858;DHT22;10589;53.636;10.012;2023-02-12T10:48:21;8.40;99.90
20858;DHT22;10589;53.636;10.012;2023-02-12T10:51:07;8.40;99.90
20858;DHT22;10589;53.636;10.012;2023-02-12T10:53:44;8.30;99.90
20858;DHT22;10589;53.636;10.012;2023-02-12T10:56:21;8.30;99.90
20858;DHT22;10589;53.636;10.012;2023-02-12T11:01:36;8.30;99.90
20858;DHT22;10589;53.636;10.012;2023-02-12T11:04:35;8.30;99.90
20858;DHT22;10589;53.636;10.012;2023-02-12T11:07:06;8.30;99.90
20858;DHT22;10589;53.636;10.012;2023-02-12T11:09:38;8.30;99.90
20858;DHT22;10589;53.636;10.012;2023-02-12T11:12:38;8.30;99.90
20858;DHT22;10589;53.636;10.012;2023-02-12T11:15:12;8.30;99.90
20858;DHT22;10589;53.636;10.012;2023-02-12T11:17:44;8.40;99.90
20858;DHT22;10589;53.636;10.012;2023-02-12T11:22:58;8.40;99.90
20858;DHT22;10589;53.636;10.012;2023-02-12T11:25:29;8.40;99.90
20858;DHT22;10589;53.636;10.012;2023-02-12T11:28:14;8.40;99.90
20858;DHT22;10589;53.636;10.012;2023-02-12T11:33:26;8.40;99.90
20858;DHT22;10589;53.636;10.012;2023-02-12T11:35:56;8.50;99.90
20858;DHT22;10589;53.636;10.012;2023-02-12T11:38:29;8.50;99.90
20858;DHT22;10589;53.636;10.012;2023-02-12T11:41:04;8.50;99.90
20858;DHT22;10589;53.636;10.012;2023-02-12T11:43:33;8.50;99.90
20858;DHT22;10589;53.636;10.012;2023-02-12T11:46:02;8.40;99.90
20858;DHT22;10589;53.636;10.012;2023-02-12T11:48:37;8.40;99.90
20858;DHT22;10589;53.636;10.012;2023-02-12T11:51:06;8.40;99.90
20858;DHT22;10589;53.636;10.012;2023-02-12T11:53:40;8.40;99.90
20858;DHT22;10589;53.636;10.012;2023-02-12T11:56:09;8.40;99.90
20858;DHT22;10589;53.636;10.012;2023-02-12T11:58:35;8.50;99.90
20858;DHT22;10589;53.636;10.012;2023-02-12T12:06:36;8.40;99.90
20858;DHT22;10589;53.636;10.012;2023-02-12T12:09:23;8.50;99.90
20858;DHT22;10589;53.636;10.012;2023-02-12T12:15:04;8.30;99.90
20858;DHT22;10589;53.636;10.012;2023-02-12T12:18:40;8.50;99.90
20858;DHT22;10589;53.636;10.012;2023-02-12T12:24:10;8.70;99.90
20858;DHT22;10589;53.636;10.012;2023-02-12T12:26:39;8.60;99.90
20858;DHT22;10589;53.636;10.012;2023-02-12T12:29:25;8.60;99.90
20858;DHT22;10589;53.636;10.012;2023-02-12T12:32:00;8.70;99.90
20858;DHT22;10589;53.636;10.012;2023-02-12T12:34:28;8.70;99.90
20858;DHT22;10589;53.636;10.012;2023-02-12T12:39:49;8.70;99.90
20858;DHT22;10589;53.636;10.012;2023-02-12T12:48:29;8.70;99.90
20858;DHT22;10589;53.636;10.012;2023-02-12T12:54:00;8.80;99.90
20858;DHT22;10589;53.636;10.012;2023-02-12T13:04:37;8.80;99.90
20858;DHT22;10589;53.636;10.012;2023-02-12T13:15:57;8.70;99.90
20858;DHT22;10589;53.636;10.012;2023-02-12T13:18:47;8.80;99.90
20858;DHT22;10589;53.636;10.012;2023-02-12T13:21:37;8.70;99.90
20858;DHT22;10589;53.636;10.012;2023-02-12T13:26:51;8.70;99.90
20858;DHT22;10589;53.636;10.012;2023-02-12T13:32:01;8.60;99.90
20858;DHT22;10589;53.636;10.012;2023-02-12T13:34:29;8.70;99.90
20858;DHT22;10589;53.636;10.012;2023-02-12T13:36:59;8.70;99.90
20858;DHT22;10589;53.636;10.012;2023-02-12T13:39:37;8.70;99.90
20858;DHT22;10589;53.636;10.012;2023-02-12T13:52:44;8.70;99.90
20858;DHT22;10589;53.636;10.012;2023-02-12T13:55:34;8.50;99.90
20858;DHT22;10589;53.636;10.012;2023-02-12T14:01:09;8.60;99.90
20858;DHT22;10589;53.636;10.012;2023-02-12T14:03:37;8.60;99.90
20858;DHT22;10589;53.636;10.012;2023-02-12T14:08:39;8.60;99.90
20858;DHT22;10589;53.636;10.012;2023-02-12T14:11:10;8.60;99.90
20858;DHT22;10589;53.636;10.012;2023-02-12T14:22:01;8.50;99.90
20858;DHT22;10589;53.636;10.012;2023-02-12T14:27:05;8.60;99.90
20858;DHT22;10589;53.636;10.012;2023-02-12T14:29:32;8.50;99.90
20858;DHT22;10589;53.636;10.012;2023-02-12T14:31:58;8.60;99.90
20858;DHT22;10589;53.636;10.012;2023-02-12T14:37:15;8.50;99.90
20858;DHT22;10589;53.636;10.012;2023-02-12T14:39:42;8.60;99.90
20858;DHT22;10589;53.636;10.012;2023-02-12T14:47:10;8.50;99.90
20858;DHT22;10589;53.636;10.012;2023-02-12T14:49:44;8.50;99.90
20858;DHT22;10589;53.636;10.012;2023-02-12T14:58:04;8.40;99.90
20858;DHT22;10589;53.636;10.012;2023-02-12T15:00:38;8.30;99.90
20858;DHT22;10589;53.636;10.012;2023-02-12T15:16:21;8.30;99.90
20858;DHT22;10589;53.636;10.012;2023-02-12T15:19:39;8.30;99.90
20858;DHT22;10589;53.636;10.012;2023-02-12T15:21:44;8.20;99.90
20858;DHT22;10589;53.636;10.012;2023-02-12T15:24:13;8.20;99.90
20858;DHT22;10589;53.636;10.012;2023-02-12T15:26:50;8.10;99.90
20858;DHT22;10589;53.636;10.012;2023-02-12T15:31:53;8.10;99.90
20858;DHT22;10589;53.636;10.012;2023-02-12T15:34:22;8.10;99.90
20858;DHT22;10589;53.636;10.012;2023-02-12T15:36:48;8.10;99.90
20858;DHT22;10589;53.636;10.012;2023-02-12T15:39:18;8.00;99.90
20858;DHT22;10589;53.636;10.012;2023-02-12T15:41:45;8.00;99.90
20858;DHT22;10589;53.636;10.012;2023-02-12T15:44:23;7.90;99.90
20858;DHT22;10589;53.636;10.012;2023-02-12T15:47:12;7.90;99.90
20858;DHT22;10589;53.636;10.012;2023-02-12T15:49:40;7.80;99.90
20858;DHT22;10589;53.636;10.012;2023-02-12T15:52:19;7.70;99.90
20858;DHT22;10589;53.636;10.012;2023-02-12T15:54:46;7.60;99.90
20858;DHT22;10589;53.636;10.012;2023-02-12T15:57:20;7.50;99.90
20858;DHT22;10589;53.636;10.012;2023-02-12T15:59:56;7.60;99.90
20858;DHT22;10589;53.636;10.012;2023-02-12T16:02:30;7.70;99.90
20858;DHT22;10589;53.636;10.012;2023-02-12T16:04:57;7.60;99.90
20858;DHT22;10589;53.636;10.012;2023-02-12T16:07:25;7.70;99.90
20858;DHT22;10589;53.636;10.012;2023-02-12T16:09:53;7.80;99.90
20858;DHT22;10589;53.636;10.012;2023-02-12T16:12:21;7.70;99.90
20858;DHT22;10589;53.636;10.012;2023-02-12T16:14:54;7.70;99.90
20858;DHT22;10589;53.636;10.012;2023-02-12T16:17:27;7.70;99.90
20858;DHT22;10589;53.636;10.012;2023-02-12T16:20:05;7.70;99.90
20858;DHT22;10589;53.636;10.012;2023-02-12T16:22:39;7.70;99.90
20858;DHT22;10589;53.636;10.012;2023-02-12T16:28:16;7.70;99.90
20858;DHT22;10589;53.636;10.012;2023-02-12T16:30:44;7.60;99.90
20858;DHT22;10589;53.636;10.012;2023-02-12T16:33:50;7.70;99.90
20858;DHT22;10589;53.636;10.012;2023-02-12T16:38:54;7.70;99.90
20858;DHT22;10589;53.636;10.012;2023-02-12T16:46:24;7.70;99.90
20858;DHT22;10589;53.636;10.012;2023-02-12T16:48:52;7.70;99.90
20858;DHT22;10589;53.636;10.012;2023-02-12T16:51:35;7.70;99.90
20858;DHT22;10589;53.636;10.012;2023-02-12T16:54:03;7.70;99.90
20858;DHT22;10589;53.636;10.012;2023-02-12T16:56:35;7.60;99.90
20858;DHT22;10589;53.636;10.012;2023-02-12T16:59:03;7.70;99.90
20858;DHT22;10589;53.636;10.012;2023-02-12T17:01:34;7.70;99.90
20858;DHT22;10589;53.636;10.012;2023-02-12T17:04:04;7.70;99.90
20858;DHT22;10589;53.636;10.012;2023-02-12T17:06:31;7.70;99.90
20858;DHT22;10589;53.636;10.012;2023-02-12T17:08:59;7.70;99.90
20858;DHT22;10589;53.636;10.012;2023-02-12T17:11:25;7.60;99.90
20858;DHT22;10589;53.636;10.012;2023-02-12T17:13:53;7.60;99.90
20858;DHT22;10589;53.636;10.012;2023-02-12T17:16:19;7.60;99.90
20858;DHT22;10589;53.636;10.012;2023-02-12T17:18:45;7.70;99.90
20858;DHT22;10589;53.636;10.012;2023-02-12T17:21:29;7.60;99.90
20858;DHT22;10589;53.636;10.012;2023-02-12T17:23:56;7.60;99.90
20858;DHT22;10589;53.636;10.012;2023-02-12T17:26:22;7.70;99.90
20858;DHT22;10589;53.636;10.012;2023-02-12T17:28:48;7.60;99.90
20858;DHT22;10589;53.636;10.012;2023-02-12T17:31:14;7.60;99.90
20858;DHT22;10589;53.636;10.012;2023-02-12T17:33:39;7.80;99.90
20858;DHT22;10589;53.636;10.012;2023-02-12T17:36:05;7.70;99.90
20858;DHT22;10589;53.636;10.012;2023-02-12T17:38:31;7.70;99.90
20858;DHT22;10589;53.636;10.012;2023-02-12T17:40:57;7.70;99.90
20858;DHT22;10589;53.636;10.012;2023-02-12T17:43:22;7.70;99.90
20858;DHT22;10589;53.636;10.012;2023-02-12T17:45:48;7.70;99.90
20858;DHT22;10589;53.636;10.012;2023-02-12T17:48:15;7.70;99.90
20858;DHT22;10589;53.636;10.012;2023-02-12T17:50:42;7.70;99.90
20858;DHT22;10589;53.636;10.012;2023-02-12T17:53:09;7.60;99.90
20858;DHT22;10589;53.636;10.012;2023-02-12T17:55:39;7.70;99.90
20858;DHT22;10589;53.636;10.012;2023-02-12T17:58:04;7.80;99.90
20858;DHT22;10589;53.636;10.012;2023-02-12T18:00:30;7.70;99.90
20858;DHT22;10589;53.636;10.012;2023-02-12T18:02:56;7.60;99.90
20858;DHT22;10589;53.636;10.012;2023-02-12T18:05:22;7.70;99.90
20858;DHT22;10589;53.636;10.012;2023-02-12T18:07:47;7.70;99.90
20858;DHT22;10589;53.636;10.012;2023-02-12T18:10:13;7.60;99.90
20858;DHT22;10589;53.636;10.012;2023-02-12T18:12:39;7.60;99.90
20858;DHT22;10589;53.636;10.012;2023-02-12T18:15:06;7.60;99.90
20858;DHT22;10589;53.636;10.012;2023-02-12T18:17:32;7.60;99.90
20858;DHT22;10589;53.636;10.012;2023-02-12T18:19:58;7.60;99.90
20858;DHT22;10589;53.636;10.012;2023-02-12T18:22:24;7.60;99.90
20858;DHT22;10589;53.636;10.012;2023-02-12T18:24:50;7.70;99.90
20858;DHT22;10589;53.636;10.012;2023-02-12T18:27:17;7.70;99.90
20858;DHT22;10589;53.636;10.012;2023-02-12T18:29:43;7.70;99.90
20858;DHT22;10589;53.636;10.012;2023-02-12T18:32:09;7.60;99.90
20858;DHT22;10589;53.636;10.012;2023-02-12T18:34:43;7.50;99.90
20858;DHT22;10589;53.636;10.012;2023-02-12T18:37:11;7.50;99.90
20858;DHT22;10589;53.636;10.012;2023-02-12T18:39:37;7.50;99.90
20858;DHT22;10589;53.636;10.012;2023-02-12T18:42:03;7.60;99.90
20858;DHT22;10589;53.636;10.012;2023-02-12T18:44:29;7.60;99.90
20858;DHT22;10589;53.636;10.012;2023-02-12T18:46:55;7.60;99.90
20858;DHT22;10589;53.636;10.012;2023-02-12T18:49:23;7.60;99.90
20858;DHT22;10589;53.636;10.012;2023-02-12T18:51:49;7.60;99.90
20858;DHT22;10589;53.636;10.012;2023-02-12T18:54:14;7.50;99.90
20858;DHT22;10589;53.636;10.012;2023-02-12T18:56:42;7.60;99.90
20858;DHT22;10589;53.636;10.012;2023-02-12T18:59:10;7.50;99.90
20858;DHT22;10589;53.636;10.012;2023-02-12T19:01:36;7.40;99.90
20858;DHT22;10589;53.636;10.012;2023-02-12T19:04:04;7.50;99.90
20858;DHT22;10589;53.636;10.012;2023-02-12T19:06:32;7.50;99.90
20858;DHT22;10589;53.636;10.012;2023-02-12T19:08:59;7.50;99.90
20858;DHT22;10589;53.636;10.012;2023-02-12T19:11:26;7.50;99.90
20858;DHT22;10589;53.636;10.012;2023-02-12T19:13:52;7.50;99.90
20858;DHT22;10589;53.636;10.012;2023-02-12T19:16:20;7.60;99.90
20858;DHT22;10589;53.636;10.012;2023-02-12T19:18:49;7.50;99.90
20858;DHT22;10589;53.636;10.012;2023-02-12T19:21:16;7.50;99.90
20858;DHT22;10589;53.636;10.012;2023-02-12T19:23:42;7.50;99.90
20858;DHT22;10589;53.636;10.012;2023-02-12T19:26:11;7.40;99.90
20858;DHT22;10589;53.636;10.012;2023-02-12T19:28:37;7.40;99.90
20858;DHT22;10589;53.636;10.012;2023-02-12T19:31:11;7.50;99.90
20858;DHT22;10589;53.636;10.012;2023-02-12T19:33:37;7.60;99.90
20858;DHT22;10589;53.636;10.012;2023-02-12T19:36:06;7.50;99.90
20858;DHT22;10589;53.636;10.012;2023-02-12T19:38:33;7.50;99.90
20858;DHT22;10589;53.636;10.012;2023-02-12T19:41:10;7.50;99.90
20858;DHT22;10589;53.636;10.012;2023-02-12T19:43:37;7.50;99.90
20858;DHT22;10589;53.636;10.012;2023-02-12T19:46:05;7.50;99.90
20858;DHT22;10589;53.636;10.012;2023-02-12T19:48:34;7.50;99.90
20858;DHT22;10589;53.636;10.012;2023-02-12T19:51:01;7.50;99.90
20858;DHT22;10589;53.636;10.012;2023-02-12T19:53:27;7.40;99.90
20858;DHT22;10589;53.636;10.012;2023-02-12T19:55:53;7.40;99.90
20858;DHT22;10589;53.636;10.012;2023-02-12T19:58:21;7.40;99.90
20858;DHT22;10589;53.636;10.012;2023-02-12T20:00:48;7.40;99.90
20858;DHT22;10589;53.636;10.012;2023-02-12T20:03:18;7.40;99.90
20858;DHT22;10589;53.636;10.012;2023-02-12T20:05:44;7.50;99.90
20858;DHT22;10589;53.636;10.012;2023-02-12T20:08:16;7.50;99.90
20858;DHT22;10589;53.636;10.012;2023-02-12T20:10:42;7.50;99.90
20858;DHT22;10589;53.636;10.012;2023-02-12T20:13:08;7.50;99.90
20858;DHT22;10589;53.636;10.012;2023-02-12T20:15:35;7.60;99.90
20858;DHT22;10589;53.636;10.012;2023-02-12T20:18:03;7.50;99.90
20858;DHT22;10589;53.636;10.012;2023-02-12T20:20:29;7.50;99.90
20858;DHT22;10589;53.636;10.012;2023-02-12T20:22:55;7.40;99.90
20858;DHT22;10589;53.636;10.012;2023-02-12T20:25:21;7.40;99.90
20858;DHT22;10589;53.636;10.012;2023-02-12T20:27:47;7.50;99.90
20858;DHT22;10589;53.636;10.012;2023-02-12T20:30:13;7.40;99.90
20858;DHT22;10589;53.636;10.012;2023-02-12T20:32:38;7.50;99.90
20858;DHT22;10589;53.636;10.012;2023-02-12T20:35:05;7.50;99.90
20858;DHT22;10589;53.636;10.012;2023-02-12T20:37:31;7.50;99.90
20858;DHT22;10589;53.636;10.012;2023-02-12T20:39:57;7.40;99.90
20858;DHT22;10589;53.636;10.012;2023-02-12T20:42:23;7.40;99.90
20858;DHT22;10589;53.636;10.012;2023-02-12T20:44:48;7.40;99.90
20858;DHT22;10589;53.636;10.012;2023-02-12T20:47:14;7.50;99.90
20858;DHT22;10589;53.636;10.012;2023-02-12T20:49:40;7.50;99.90
20858;DHT22;10589;53.636;10.012;2023-02-12T20:52:05;7.40;99.90
20858;DHT22;10589;53.636;10.012;2023-02-12T20:54:31;7.30;99.90
20858;DHT22;10589;53.636;10.012;2023-02-12T20:56:56;7.40;99.90
20858;DHT22;10589;53.636;10.012;2023-02-12T20:59:22;7.40;99.90
20858;DHT22;10589;53.636;10.012;2023-02-12T21:01:48;7.40;99.90
20858;DHT22;10589;53.636;10.012;2023-02-12T21:04:16;7.40;99.90
20858;DHT22;10589;53.636;10.012;2023-02-12T21:06:42;7.40;99.90
20858;DHT22;10589;53.636;10.012;2023-02-12T21:09:11;7.30;99.90
20858;DHT22;10589;53.636;10.012;2023-02-12T21:11:39;7.20;99.90
20858;DHT22;10589;53.636;10.012;2023-02-12T21:14:06;7.30;99.90
20858;DHT22;10589;53.636;10.012;2023-02-12T21:16:35;7.30;99.90
20858;DHT22;10589;53.636;10.012;2023-02-12T21:19:00;7.30;99.90
20858;DHT22;10589;53.636;10.012;2023-02-12T21:21:32;7.30;99.90
20858;DHT22;10589;53.636;10.012;2023-02-12T21:24:01;7.40;99.90
20858;DHT22;10589;53.636;10.012;2023-02-12T21:26:30;7.30;99.90
20858;DHT22;10589;53.636;10.012;2023-02-12T21:28:58;7.30;99.90
20858;DHT22;10589;53.636;10.012;2023-02-12T21:31:29;7.30;99.90
20858;DHT22;10589;53.636;10.012;2023-02-12T21:33:56;7.30;99.90
20858;DHT22;10589;53.636;10.012;2023-02-12T21:36:25;7.30;99.90
20858;DHT22;10589;53.636;10.012;2023-02-12T21:38:51;7.40;99.90
20858;DHT22;10589;53.636;10.012;2023-02-12T21:41:20;7.40;99.90
20858;DHT22;10589;53.636;10.012;2023-02-12T21:44:13;7.30;99.90
20858;DHT22;10589;53.636;10.012;2023-02-12T21:46:37;7.30;99.90
20858;DHT22;10589;53.636;10.012;2023-02-12T21:49:04;7.20;99.90
20858;DHT22;10589;53.636;10.012;2023-02-12T21:51:41;7.30;99.90
20858;DHT22;10589;53.636;10.012;2023-02-12T21:54:13;7.40;99.90
20858;DHT22;10589;53.636;10.012;2023-02-12T21:56:43;7.30;99.90
20858;DHT22;10589;53.636;10.012;2023-02-12T21:59:10;7.20;99.90
20858;DHT22;10589;53.636;10.012;2023-02-12T22:01:42;7.20;99.90
20858;DHT22;10589;53.636;10.012;2023-02-12T22:04:09;7.20;99.90
20858;DHT22;10589;53.636;10.012;2023-02-12T22:06:37;7.10;99.90
20858;DHT22;10589;53.636;10.012;2023-02-12T22:09:04;7.10;99.90
20858;DHT22;10589;53.636;10.012;2023-02-12T22:11:35;7.20;99.90
20858;DHT22;10589;53.636;10.012;2023-02-12T22:14:01;7.10;99.90
20858;DHT22;10589;53.636;10.012;2023-02-12T22:16:29;7.10;99.90
20858;DHT22;10589;53.636;10.012;2023-02-12T22:18:56;7.00;99.90
20858;DHT22;10589;53.636;10.012;2023-02-12T22:21:25;7.10;99.90
20858;DHT22;10589;53.636;10.012;2023-02-12T22:23:52;7.10;99.90
20858;DHT22;10589;53.636;10.012;2023-02-12T22:26:24;7.00;99.90
20858;DHT22;10589;53.636;10.012;2023-02-12T22:28:56;7.10;99.90
20858;DHT22;10589;53.636;10.012;2023-02-12T22:31:24;7.10;99.90
20858;DHT22;10589;53.636;10.012;2023-02-12T22:33:53;7.00;99.90
20858;DHT22;10589;53.636;10.012;2023-02-12T22:36:20;7.00;99.90
20858;DHT22;10589;53.636;10.012;2023-02-12T22:38:53;7.10;99.90
20858;DHT22;10589;53.636;10.012;2023-02-12T22:41:20;7.00;99.90
20858;DHT22;10589;53.636;10.012;2023-02-12T22:43:46;7.00;99.90
20858;DHT22;10589;53.636;10.012;2023-02-12T22:46:12;7.00;99.90
20858;DHT22;10589;53.636;10.012;2023-02-12T22:48:38;7.00;99.90
20858;DHT22;10589;53.636;10.012;2023-02-12T22:51:19;7.00;99.90
20858;DHT22;10589;53.636;10.012;2023-02-12T22:53:45;6.90;99.90